Time;durP1;ratioP1;P1;durP2;ratioP2;P2;SDS_P1;SDS_P2;PMS_P1;PMS_P2;Temp;Humidity;BMP_temperature;BMP_pressure;BME280_temperature;BME280_humidity;BME280_pressure;Samples;Min_cycle;Max_cycle;Signal;HPM_P1;HPM_P2
2021/06/13 00:01:34;;;;;;;3.53;2.92;;;17.20;99.90;;;;;;5028017;28;20053;-78
2021/06/13 00:04:03;;;;;;;3.70;3.40;;;17.10;99.90;;;;;;5013272;28;20057;-78
2021/06/13 00:06:31;;;;;;;5.05;4.55;;;17.10;99.90;;;;;;5012389;28;20049;-80
2021/06/13 00:08:59;;;;;;;6.68;5.00;;;17.10;99.90;;;;;;5012973;28;20511;-78
2021/06/13 00:11:26;;;;;;;4.30;3.90;;;17.10;99.90;;;;;;5012342;28;20053;-77
2021/06/13 00:13:54;;;;;;;5.97;5.38;;;17.10;99.90;;;;;;5012679;28;20065;-79
2021/06/13 00:16:22;;;;;;;9.52;5.15;;;17.10;99.90;;;;;;5012558;28;20510;-79
2021/06/13 00:18:50;;;;;;;7.40;4.22;;;17.10;99.90;;;;;;5011828;28;20560;-79
2021/06/13 00:21:18;;;;;;;4.55;4.13;;;17.10;99.90;;;;;;5011717;28;20049;-80
2021/06/13 00:23:46;;;;;;;4.95;3.80;;;17.10;99.90;;;;;;5011325;28;20062;-80
2021/06/13 00:26:19;;;;;;;5.20;4.43;;;17.10;99.90;;;;;;5012497;28;20042;-79
2021/06/13 00:28:47;;;;;;;5.10;3.97;;;17.10;99.90;;;;;;5012674;28;20046;-79
2021/06/13 00:31:15;;;;;;;7.20;3.70;;;17.10;99.90;;;;;;5012749;28;20559;-78
2021/06/13 00:33:43;;;;;;;5.18;4.68;;;17.10;99.90;;;;;;5012472;28;20053;-78
2021/06/13 00:36:11;;;;;;;4.78;4.03;;;17.10;99.90;;;;;;5011955;28;20053;-80
2021/06/13 00:38:39;;;;;;;4.75;4.22;;;17.00;99.90;;;;;;5008289;28;20061;-78
2021/06/13 00:41:09;;;;;;;4.30;3.55;;;17.00;99.90;;;;;;4992374;28;20054;-79
2021/06/13 00:43:36;;;;;;;5.38;3.78;;;16.90;99.90;;;;;;4992867;28;20069;-79
2021/06/13 00:46:05;;;;;;;5.60;5.07;;;16.90;99.90;;;;;;4990896;28;20054;-82
2021/06/13 00:48:33;;;;;;;5.47;4.30;;;16.90;99.90;;;;;;5007969;28;20042;-83
2021/06/13 00:51:02;;;;;;;4.82;4.25;;;16.90;99.90;;;;;;4990545;28;20054;-84
2021/06/13 00:53:31;;;;;;;5.30;4.80;;;16.90;99.90;;;;;;4993407;28;20053;-81
2021/06/13 00:56:05;;;;;;;4.75;4.28;;;16.90;99.90;;;;;;5026400;28;20050;-82
2021/06/13 00:58:33;;;;;;;6.40;3.90;;;16.80;99.90;;;;;;4978281;28;20411;-78
2021/06/13 01:01:03;;;;;;;5.25;4.32;;;16.80;99.90;;;;;;5010439;28;20046;-79
2021/06/13 01:03:35;;;;;;;5.55;4.78;;;16.70;99.90;;;;;;5012052;28;20057;-79
2021/06/13 01:06:04;;;;;;;6.78;4.75;;;16.70;99.90;;;;;;5011147;28;20054;-79
2021/06/13 01:08:48;;;;;;;4.82;3.88;;;16.60;99.90;;;;;;5010547;28;20046;-79
2021/06/13 01:11:28;;;;;;;5.68;4.75;;;16.60;99.90;;;;;;5010859;28;20411;-79
2021/06/13 01:14:27;;;;;;;5.60;4.45;;;16.60;99.90;;;;;;5011448;28;20569;-79
2021/06/13 01:17:10;;;;;;;5.63;3.78;;;16.60;99.90;;;;;;5007559;28;20092;-80
2021/06/13 01:19:41;;;;;;;8.35;5.13;;;16.50;99.90;;;;;;4991582;28;20062;-79
2021/06/13 01:22:34;;;;;;;5.93;4.75;;;16.50;99.90;;;;;;5006776;28;20065;-79
2021/06/13 01:25:26;;;;;;;5.57;4.38;;;16.50;99.90;;;;;;5006540;28;20048;-79
2021/06/13 01:28:18;;;;;;;4.82;4.25;;;16.50;99.90;;;;;;5010392;28;20479;-81
2021/06/13 01:30:47;;;;;;;6.20;4.75;;;16.50;99.90;;;;;;5010832;28;20054;-79
2021/06/13 01:33:16;;;;;;;6.05;4.70;;;16.50;99.90;;;;;;5026149;28;20050;-79
2021/06/13 01:35:46;;;;;;;5.88;5.10;;;16.50;99.90;;;;;;5009910;28;20050;-79
2021/06/13 01:38:17;;;;;;;4.63;4.03;;;16.40;99.90;;;;;;4991989;28;20072;-79
2021/06/13 01:40:49;;;;;;;4.28;3.88;;;16.40;99.90;;;;;;4989929;28;20053;-79
2021/06/13 01:43:22;;;;;;;;;;;16.40;99.90;;;;;;4991363;28;20055;-78
2021/06/13 01:45:53;;;;;;;5.68;3.85;;;16.40;99.90;;;;;;4990037;28;19941;-78
2021/06/13 01:48:23;;;;;;;6.22;5.63;;;16.30;99.90;;;;;;4991528;28;20408;-79
2021/06/13 01:50:54;;;;;;;5.50;4.07;;;16.30;99.90;;;;;;4990677;28;20448;-79
2021/06/13 01:53:24;;;;;;;7.43;4.65;;;16.30;99.90;;;;;;4991702;28;20051;-79
2021/06/13 01:55:54;;;;;;;8.15;4.28;;;16.30;99.90;;;;;;5010198;28;20050;-78
2021/06/13 01:58:24;;;;;;;;;;;16.30;99.90;;;;;;5011392;28;20073;-79
2021/06/13 02:00:59;;;;;;;6.30;5.10;;;16.30;99.90;;;;;;5025749;28;19930;-78
2021/06/13 02:03:31;;;;;;;5.20;4.72;;;16.30;99.90;;;;;;5010153;28;20064;-79
2021/06/13 02:06:37;;;;;;;4.90;3.75;;;16.20;99.90;;;;;;5014370;28;20042;-78
2021/06/13 02:09:07;;;;;;;6.38;4.95;;;16.10;99.90;;;;;;5009558;28;20046;-80
2021/06/13 02:11:41;;;;;;;6.47;4.45;;;16.10;99.90;;;;;;5025996;28;20049;-78
2021/06/13 02:14:10;;;;;;;11.95;4.95;;;16.00;99.90;;;;;;5010239;28;20056;-80
2021/06/13 02:16:45;;;;;;;5.32;4.75;;;16.00;99.90;;;;;;5010724;28;20046;-80
2021/06/13 02:19:17;;;;;;;6.20;5.30;;;16.00;99.90;;;;;;5009810;28;20054;-79
2021/06/13 02:21:55;;;;;;;6.00;4.85;;;15.90;99.90;;;;;;5006446;28;20046;-78
2021/06/13 02:24:27;;;;;;;7.75;5.60;;;15.90;99.90;;;;;;5010323;28;20054;-79
2021/06/13 02:26:56;;;;;;;7.47;5.05;;;15.90;99.90;;;;;;5009528;28;20049;-78
2021/06/13 02:29:26;;;;;;;7.10;4.95;;;15.90;99.90;;;;;;5025405;28;20057;-77
2021/06/13 02:31:57;;;;;;;5.43;4.70;;;15.80;99.90;;;;;;5009820;28;20058;-79
2021/06/13 02:34:29;;;;;;;9.25;7.15;;;15.80;99.90;;;;;;5008723;28;20050;-78
2021/06/13 02:37:00;;;;;;;5.25;4.45;;;15.80;99.90;;;;;;5010374;28;20049;-78
2021/06/13 02:39:29;;;;;;;6.05;5.43;;;15.70;99.90;;;;;;5014983;28;20047;-77
2021/06/13 02:42:01;;;;;;;5.28;4.25;;;15.70;99.90;;;;;;5005458;28;20046;-78
2021/06/13 02:44:30;;;;;;;7.95;5.50;;;15.70;99.90;;;;;;4989529;28;20411;-77
2021/06/13 02:46:58;;;;;;;7.95;5.47;;;15.70;99.90;;;;;;5009134;28;20061;-77
2021/06/13 02:49:27;;;;;;;6.18;4.88;;;15.70;99.90;;;;;;5009327;28;20054;-78
2021/06/13 02:52:19;;;;;;;8.82;6.53;;;15.70;99.90;;;;;;4994205;28;20065;-77
2021/06/13 02:54:48;;;;;;;8.95;6.28;;;15.70;99.90;;;;;;5012788;28;20526;-78
2021/06/13 02:57:27;;;;;;;5.90;4.85;;;15.60;99.90;;;;;;5014641;28;20057;-78
2021/06/13 03:00:04;;;;;;;5.30;4.80;;;15.50;99.90;;;;;;5012694;28;20057;-78
2021/06/13 03:02:41;;;;;;;6.43;5.60;;;15.50;99.90;;;;;;5012844;28;20045;-78
2021/06/13 03:05:11;;;;;;;7.50;5.38;;;15.40;99.90;;;;;;5012020;28;20049;-77
2021/06/13 03:07:44;;;;;;;5.65;5.07;;;15.40;99.90;;;;;;5014431;28;20068;-77
2021/06/13 03:10:14;;;;;;;7.63;6.00;;;15.40;99.90;;;;;;5012719;28;20511;-78
2021/06/13 03:12:44;;;;;;;7.22;5.40;;;15.50;99.90;;;;;;4996135;28;20062;-79
2021/06/13 03:15:14;;;;;;;7.82;5.00;;;15.50;99.90;;;;;;5012824;28;20380;-78
2021/06/13 03:17:43;;;;;;;9.52;5.97;;;15.50;99.90;;;;;;5005046;28;20404;-78
2021/06/13 03:20:12;;;;;;;6.35;5.75;;;15.50;99.90;;;;;;4992051;28;20388;-78
2021/06/13 03:22:42;;;;;;;5.88;4.78;;;15.40;99.90;;;;;;4994023;28;20038;-77
2021/06/13 03:25:13;;;;;;;8.57;5.53;;;15.40;99.90;;;;;;5010286;28;20053;-79
2021/06/13 03:27:43;;;;;;;7.03;6.00;;;15.40;99.90;;;;;;5014111;28;20423;-77
2021/06/13 03:30:21;;;;;;;8.68;5.80;;;15.40;99.90;;;;;;5011759;28;20042;-77
2021/06/13 03:32:54;;;;;;;9.43;5.68;;;15.40;99.90;;;;;;5013584;28;20786;-78
2021/06/13 03:35:24;;;;;;;7.88;5.93;;;15.30;99.90;;;;;;5013411;28;20395;-77
2021/06/13 03:37:54;;;;;;;6.10;5.47;;;15.30;99.90;;;;;;5013396;28;20045;-78
2021/06/13 03:40:23;;;;;;;7.50;5.65;;;15.20;99.90;;;;;;5012994;28;20065;-78
2021/06/13 03:42:55;;;;;;;8.77;5.53;;;15.20;99.90;;;;;;5012595;28;20395;-77
2021/06/13 03:45:27;;;;;;;10.25;6.13;;;15.10;99.90;;;;;;5013233;28;20038;-79
2021/06/13 03:47:58;;;;;;;9.85;5.90;;;15.00;99.90;;;;;;5012646;28;20050;-78
2021/06/13 03:50:28;;;;;;;7.97;7.15;;;15.00;99.90;;;;;;5012077;28;20048;-77
2021/06/13 03:52:56;;;;;;;9.32;7.20;;;15.00;99.90;;;;;;5013299;28;20038;-78
2021/06/13 03:55:24;;;;;;;7.53;5.28;;;14.90;99.90;;;;;;5013629;28;20054;-78
2021/06/13 03:57:54;;;;;;;6.10;5.28;;;14.80;99.90;;;;;;5012758;28;20038;-77
2021/06/13 04:00:25;;;;;;;7.43;5.45;;;14.70;99.90;;;;;;5012516;28;20417;-78
2021/06/13 04:02:53;;;;;;;7.82;7.13;;;14.70;99.90;;;;;;5013250;28;20053;-78
2021/06/13 04:05:29;;;;;;;10.65;5.55;;;14.70;99.90;;;;;;5011017;28;20045;-78
2021/06/13 04:07:57;;;;;;;6.95;6.25;;;14.60;99.90;;;;;;5013386;28;20054;-78
2021/06/13 04:10:26;;;;;;;9.10;5.53;;;14.60;99.90;;;;;;5012737;28;20491;-78
2021/06/13 04:12:55;;;;;;;10.75;6.55;;;14.60;99.90;;;;;;5012790;28;20042;-78
2021/06/13 04:15:25;;;;;;;12.52;7.18;;;14.60;99.90;;;;;;5012911;28;20065;-77
2021/06/13 04:17:54;;;;;;;11.70;5.47;;;14.60;99.90;;;;;;5012812;28;20045;-78
2021/06/13 04:20:23;;;;;;;9.43;5.70;;;14.50;99.90;;;;;;5012118;28;20060;-78
2021/06/13 04:22:51;;;;;;;6.72;5.35;;;14.50;99.90;;;;;;5013159;28;20072;-78
2021/06/13 04:25:20;;;;;;;9.30;5.93;;;14.50;99.90;;;;;;5012590;28;20061;-78
2021/06/13 04:27:51;;;;;;;8.43;6.03;;;14.50;99.90;;;;;;5013093;28;20058;-78
2021/06/13 04:30:19;;;;;;;11.13;6.95;;;14.50;99.90;;;;;;5011706;28;20050;-79
2021/06/13 04:32:49;;;;;;;7.70;5.05;;;14.40;99.90;;;;;;5010222;28;20057;-78
2021/06/13 04:35:17;;;;;;;8.13;7.15;;;14.50;99.90;;;;;;5011732;28;20061;-78
2021/06/13 04:37:45;;;;;;;6.38;5.38;;;14.50;99.90;;;;;;5012095;28;20057;-78
2021/06/13 04:40:13;;;;;;;6.65;4.95;;;14.50;99.90;;;;;;5012328;28;20053;-77
2021/06/13 04:42:41;;;;;;;7.22;5.65;;;14.60;99.90;;;;;;5012059;28;20050;-77
2021/06/13 04:45:09;;;;;;;7.28;5.75;;;14.70;99.90;;;;;;5011587;28;20053;-81
2021/06/13 04:47:37;;;;;;;11.55;6.40;;;14.80;99.90;;;;;;5012966;28;20054;-82
2021/06/13 04:50:06;;;;;;;7.18;5.25;;;14.80;99.90;;;;;;5010320;28;20487;-81
2021/06/13 04:52:39;;;;;;;10.25;6.72;;;14.90;99.90;;;;;;4994816;28;20050;-81
2021/06/13 04:55:13;;;;;;;7.18;4.90;;;15.00;99.90;;;;;;5010202;28;20065;-82
2021/06/13 04:58:10;;;;;;;9.02;6.88;;;15.10;99.90;;;;;;5011167;28;20045;-81
2021/06/13 05:00:38;;;;;;;6.57;4.60;;;15.20;99.90;;;;;;5004461;28;20054;-82
2021/06/13 05:03:06;;;;;;;7.20;5.93;;;15.30;99.90;;;;;;4994474;28;20058;-81
2021/06/13 05:05:34;;;;;;;9.90;6.05;;;15.30;99.90;;;;;;5009172;28;20045;-80
2021/06/13 05:08:04;;;;;;;6.57;5.03;;;15.40;99.90;;;;;;5010795;28;20494;-81
2021/06/13 05:10:37;;;;;;;8.35;5.15;;;15.40;99.90;;;;;;5025447;28;20046;-83
2021/06/13 05:13:16;;;;;;;7.75;5.22;;;15.40;99.90;;;;;;5011903;28;20053;-81
2021/06/13 05:15:44;;;;;;;9.82;6.35;;;15.40;99.90;;;;;;5010255;28;20399;-82
2021/06/13 05:18:12;;;;;;;9.18;4.97;;;15.60;99.90;;;;;;4990697;28;20057;-81
2021/06/13 05:20:41;;;;;;;7.00;5.53;;;15.60;99.90;;;;;;5006269;28;20050;-81
2021/06/13 05:23:09;;;;;;;6.18;5.57;;;15.70;99.90;;;;;;4992724;28;20062;-82
2021/06/13 05:25:39;;;;;;;6.38;5.78;;;15.90;99.90;;;;;;4990106;28;20042;-81
2021/06/13 05:28:07;;;;;;;5.25;4.85;;;15.90;99.90;;;;;;5006459;28;20073;-77
2021/06/13 05:30:36;;;;;;;5.90;5.32;;;15.90;99.90;;;;;;4991135;28;20054;-78
2021/06/13 05:33:05;;;;;;;7.95;5.07;;;15.80;99.90;;;;;;4991781;28;20046;-78
2021/06/13 05:35:33;;;;;;;12.82;5.10;;;15.70;99.90;;;;;;4990289;28;20046;-77
2021/06/13 05:38:02;;;;;;;7.00;4.93;;;15.70;99.90;;;;;;5008444;28;20053;-78
2021/06/13 05:40:30;;;;;;;6.07;5.47;;;15.70;99.90;;;;;;5010666;28;20403;-77
2021/06/13 05:42:58;;;;;;;5.85;4.80;;;15.80;99.90;;;;;;5011872;28;20053;-78
2021/06/13 05:45:30;;;;;;;6.95;5.72;;;15.90;99.90;;;;;;5009427;28;20054;-78
2021/06/13 05:47:58;;;;;;;9.33;5.70;;;15.80;99.90;;;;;;5011874;28;20060;-77
2021/06/13 05:50:28;;;;;;;6.78;5.10;;;15.80;99.90;;;;;;5004683;28;20049;-78
2021/06/13 05:52:59;;;;;;;;;;;15.70;99.90;;;;;;5006639;28;20042;-77
2021/06/13 05:55:28;;;;;;;7.47;5.47;;;15.50;99.90;;;;;;5025392;28;19921;-78
2021/06/13 05:57:56;;;;;;;7.03;4.82;;;15.40;99.90;;;;;;5026143;28;20050;-78
2021/06/13 06:00:30;;;;;;;6.70;5.30;;;15.50;99.90;;;;;;5009077;28;20054;-77
2021/06/13 06:02:58;;;;;;;9.05;6.65;;;15.70;99.90;;;;;;5011456;28;20092;-77
2021/06/13 06:05:28;;;;;;;10.25;5.38;;;15.90;99.90;;;;;;5010077;28;20117;-78
2021/06/13 06:07:56;;;;;;;6.80;5.53;;;16.00;99.90;;;;;;5011565;28;20058;-77
2021/06/13 06:10:26;;;;;;;6.78;4.32;;;16.10;99.90;;;;;;5009374;28;20553;-77
2021/06/13 06:13:00;;;;;;;6.38;4.90;;;16.20;99.90;;;;;;5010909;28;20042;-77
2021/06/13 06:15:32;;;;;;;6.35;3.88;;;16.40;99.90;;;;;;5010933;28;20073;-78
2021/06/13 06:17:59;;;;;;;4.37;3.60;;;16.40;99.90;;;;;;5010722;28;20050;-77
2021/06/13 06:20:30;;;;;;;4.97;4.13;;;16.20;99.90;;;;;;5009647;28;20062;-78
2021/06/13 06:22:59;;;;;;;11.60;6.45;;;16.30;99.90;;;;;;5011340;28;20409;-77
2021/06/13 06:25:27;;;;;;;9.43;3.72;;;16.30;99.90;;;;;;5010692;28;20046;-78
2021/06/13 06:27:56;;;;;;;6.53;4.35;;;16.30;99.90;;;;;;5011271;28;20061;-78
2021/06/13 06:30:26;;;;;;;4.53;3.95;;;16.30;99.90;;;;;;5010169;28;20395;-77
2021/06/13 06:32:55;;;;;;;6.35;4.40;;;16.30;99.90;;;;;;5010555;28;20038;-77
2021/06/13 06:35:24;;;;;;;8.35;4.95;;;16.50;99.90;;;;;;5010173;28;20049;-79
2021/06/13 06:37:52;;;;;;;4.35;3.90;;;16.50;99.90;;;;;;5010700;28;20045;-78
2021/06/13 06:40:20;;;;;;;5.85;3.53;;;16.40;99.90;;;;;;4992165;28;20065;-79
2021/06/13 06:42:47;;;;;;;7.03;3.17;;;16.60;99.90;;;;;;4991436;28;20415;-77
2021/06/13 06:45:16;;;;;;;8.65;3.65;;;17.00;99.90;;;;;;4989216;28;20134;-78
2021/06/13 06:47:46;;;;;;;4.18;3.80;;;17.10;99.20;;;;;;4991114;28;20388;-77
2021/06/13 06:50:14;;;;;;;7.15;3.45;;;17.00;98.40;;;;;;4990303;28;20046;-79
2021/06/13 06:52:43;;;;;;;4.05;2.55;;;16.90;98.50;;;;;;4991041;28;20042;-78
2021/06/13 06:55:14;;;;;;;4.40;2.92;;;16.60;98.30;;;;;;5007552;28;20053;-77
2021/06/13 06:57:45;;;;;;;6.22;4.85;;;16.60;99.60;;;;;;5010666;28;20046;-78
2021/06/13 07:00:14;;;;;;;8.20;3.58;;;16.50;99.90;;;;;;5010896;28;20058;-78
2021/06/13 07:02:42;;;;;;;5.85;3.47;;;16.60;99.40;;;;;;5009777;28;20049;-77
2021/06/13 07:05:12;;;;;;;9.85;5.30;;;16.80;98.50;;;;;;5009635;28;20065;-79
2021/06/13 07:07:42;;;;;;;5.07;3.65;;;16.90;98.40;;;;;;5011102;28;20403;-78
2021/06/13 07:10:12;;;;;;;4.93;3.45;;;17.00;98.30;;;;;;5009720;28;20057;-78
2021/06/13 07:12:41;;;;;;;7.82;4.28;;;17.10;98.50;;;;;;5010441;28;20050;-79
2021/06/13 07:15:09;;;;;;;5.70;4.28;;;17.40;98.40;;;;;;5009038;28;20053;-78
2021/06/13 07:17:38;;;;;;;11.15;5.60;;;17.70;97.10;;;;;;5009891;28;20046;-78
2021/06/13 07:20:08;;;;;;;7.55;3.92;;;17.40;97.90;;;;;;5009854;28;20050;-78
2021/06/13 07:22:38;;;;;;;4.65;4.25;;;18.40;95.90;;;;;;5008719;28;20054;-78
2021/06/13 07:25:07;;;;;;;16.17;5.15;;;18.60;95.20;;;;;;5010245;28;20050;-79
2021/06/13 07:27:37;;;;;;;4.57;3.27;;;19.40;94.20;;;;;;5010552;28;20054;-79
2021/06/13 07:30:08;;;;;;;6.13;5.18;;;18.90;94.60;;;;;;5009901;28;20209;-80
2021/06/13 07:32:37;;;;;;;3.65;3.33;;;18.50;94.50;;;;;;5012122;28;20061;-78
2021/06/13 07:35:11;;;;;;;4.50;4.10;;;17.80;96.90;;;;;;5013288;28;20061;-78
2021/06/13 07:37:41;;;;;;;5.05;4.55;;;18.50;96.70;;;;;;5013630;28;20571;-78
2021/06/13 07:40:10;;;;;;;7.32;5.00;;;20.10;93.90;;;;;;5013431;28;20061;-80
2021/06/13 07:42:38;;;;;;;4.93;4.35;;;20.20;92.00;;;;;;5012260;28;20866;-79
2021/06/13 07:45:10;;;;;;;8.77;5.22;;;19.40;93.00;;;;;;5013219;28;20054;-80
2021/06/13 07:47:39;;;;;;;5.18;4.22;;;18.30;95.00;;;;;;5013624;28;20062;-79
2021/06/13 07:50:10;;;;;;;7.47;5.35;;;17.40;97.20;;;;;;5012428;28;20046;-80
2021/06/13 07:52:38;;;;;;;4.70;3.88;;;16.90;97.40;;;;;;5013049;28;20062;-81
2021/06/13 07:55:07;;;;;;;7.00;3.20;;;16.80;98.70;;;;;;5014006;28;20058;-79
2021/06/13 07:57:35;;;;;;;8.43;4.35;;;17.20;97.30;;;;;;5013576;28;20053;-80
2021/06/13 08:00:08;;;;;;;6.60;3.50;;;17.30;95.50;;;;;;5013522;28;20118;-78
2021/06/13 08:02:42;;;;;;;4.78;3.03;;;17.40;99.20;;;;;;5013487;28;20046;-79
2021/06/13 08:05:16;;;;;;;7.75;3.13;;;17.70;95.30;;;;;;5011224;28;20395;-81
2021/06/13 08:07:43;;;;;;;4.95;3.78;;;18.00;97.30;;;;;;5013764;28;20064;-78
2021/06/13 08:10:12;;;;;;;4.13;3.25;;;17.80;96.40;;;;;;5012820;28;20667;-78
2021/06/13 08:12:40;;;;;;;4.53;4.13;;;17.70;95.60;;;;;;5012789;28;20049;-78
2021/06/13 08:15:10;;;;;;;12.32;4.68;;;17.50;95.70;;;;;;5013179;28;20534;-79
2021/06/13 08:17:38;;;;;;;5.43;3.92;;;17.70;97.80;;;;;;5013046;28;20041;-78
2021/06/13 08:20:06;;;;;;;9.27;3.90;;;17.70;95.80;;;;;;5012244;28;20061;-78
2021/06/13 08:22:34;;;;;;;5.40;3.40;;;17.70;97.20;;;;;;5012777;28;20049;-79
2021/06/13 08:25:02;;;;;;;4.72;4.25;;;17.40;97.50;;;;;;5012066;28;20042;-79
2021/06/13 08:27:30;;;;;;;6.47;4.10;;;17.40;97.40;;;;;;5012156;28;20680;-79
2021/06/13 08:29:58;;;;;;;5.47;4.50;;;17.60;98.00;;;;;;5012037;28;20050;-81
2021/06/13 08:32:27;;;;;;;3.72;3.20;;;17.60;98.70;;;;;;5012153;28;20049;-78
2021/06/13 08:34:56;;;;;;;21.00;4.85;;;17.90;96.60;;;;;;5011732;28;20062;-80
2021/06/13 08:37:24;;;;;;;8.20;4.00;;;18.10;97.00;;;;;;5012347;28;20050;-79
2021/06/13 08:39:52;;;;;;;6.22;4.22;;;18.10;97.40;;;;;;4998498;28;20059;-79
2021/06/13 08:42:20;;;;;;;3.33;2.92;;;18.10;98.10;;;;;;4993049;28;20046;-78
2021/06/13 08:44:48;;;;;;;6.38;3.97;;;18.10;99.20;;;;;;4992535;28;20049;-80
2021/06/13 08:47:18;;;;;;;6.38;3.85;;;18.10;98.80;;;;;;4993401;28;20058;-81
2021/06/13 08:49:47;;;;;;;6.57;3.92;;;17.90;97.10;;;;;;4991846;28;20049;-78
2021/06/13 08:52:15;;;;;;;6.85;3.78;;;17.90;96.20;;;;;;4992592;28;20065;-78
2021/06/13 08:54:43;;;;;;;4.93;3.63;;;18.00;96.50;;;;;;5004702;28;20060;-79
2021/06/13 08:57:15;;;;;;;6.55;2.97;;;18.00;95.10;;;;;;5012414;28;20053;-87
2021/06/13 08:59:45;;;;;;;7.18;3.78;;;17.80;96.10;;;;;;5011082;28;20054;-86
2021/06/13 09:02:17;;;;;;;3.95;3.42;;;18.10;97.60;;;;;;4997641;28;20050;-84
2021/06/13 09:04:45;;;;;;;5.68;3.13;;;18.40;97.00;;;;;;5011217;28;20049;-84
2021/06/13 09:07:25;;;;;;;3.78;3.25;;;18.10;95.10;;;;;;5012883;28;20053;-83
2021/06/13 09:09:55;;;;;;;4.67;3.80;;;17.80;95.90;;;;;;5012005;28;20049;-78
2021/06/13 09:12:24;;;;;;;6.75;3.08;;;18.10;97.60;;;;;;5011909;28;20053;-89
2021/06/13 09:14:54;;;;;;;4.47;3.03;;;18.30;97.50;;;;;;5012364;28;20053;-78
2021/06/13 09:17:29;;;;;;;5.47;2.80;;;18.30;94.90;;;;;;5005523;28;20053;-78
2021/06/13 09:20:17;;;;;;;3.53;3.15;;;18.40;97.20;;;;;;4991278;28;20054;-77
2021/06/13 09:23:05;;;;;;;5.90;4.20;;;18.60;94.60;;;;;;4991875;28;20057;-78
2021/06/13 09:25:34;;;;;;;4.45;2.50;;;18.60;94.40;;;;;;5010597;28;20057;-77
2021/06/13 09:28:11;;;;;;;4.22;3.83;;;18.60;94.50;;;;;;5012091;28;20407;-77
2021/06/13 09:30:47;;;;;;;3.83;3.25;;;18.70;94.00;;;;;;5011239;28;20041;-78
2021/06/13 09:33:19;;;;;;;6.78;4.18;;;18.70;94.50;;;;;;5011500;28;20045;-77
2021/06/13 09:35:48;;;;;;;3.08;2.88;;;18.50;91.80;;;;;;5011091;28;20050;-77
2021/06/13 09:38:23;;;;;;;3.22;2.92;;;18.50;93.80;;;;;;4991942;28;20046;-78
2021/06/13 09:41:12;;;;;;;3.35;3.05;;;18.60;92.00;;;;;;5011346;28;20069;-80
2021/06/13 09:43:42;;;;;;;8.52;3.28;;;18.50;91.90;;;;;;4994219;28;20408;-78
2021/06/13 09:46:32;;;;;;;4.38;3.15;;;18.70;92.40;;;;;;5010916;28;20057;-78
2021/06/13 09:49:07;;;;;;;6.90;3.38;;;18.70;92.70;;;;;;5011218;28;20046;-78
2021/06/13 09:51:44;;;;;;;3.60;2.47;;;18.70;94.60;;;;;;5025700;28;20054;-78
2021/06/13 09:54:20;;;;;;;4.70;3.03;;;18.80;92.20;;;;;;5030562;28;20053;-79
2021/06/13 09:56:49;;;;;;;3.42;3.10;;;18.60;94.20;;;;;;5030615;28;20049;-77
2021/06/13 09:59:28;;;;;;;3.80;3.10;;;18.50;92.40;;;;;;5030881;28;20053;-77
2021/06/13 10:01:59;;;;;;;5.55;3.03;;;18.70;93.90;;;;;;5028674;28;20050;-79
2021/06/13 10:04:39;;;;;;;3.28;2.25;;;18.70;93.10;;;;;;5030140;28;20064;-77
2021/06/13 10:07:16;;;;;;;3.50;3.20;;;18.70;91.50;;;;;;5030270;28;20069;-77
2021/06/13 10:09:50;;;;;;;5.28;3.28;;;18.70;92.00;;;;;;5030919;28;20573;-78
2021/06/13 10:12:20;;;;;;;2.47;2.30;;;19.00;92.30;;;;;;5012632;28;20399;-78
2021/06/13 10:14:49;;;;;;;3.17;2.88;;;19.10;93.30;;;;;;5012436;28;20888;-77
2021/06/13 10:17:28;;;;;;;3.70;2.83;;;19.00;93.40;;;;;;5029410;28;20042;-79
2021/06/13 10:19:56;;;;;;;4.82;2.72;;;19.00;91.90;;;;;;5029577;28;20057;-77
2021/06/13 10:22:25;;;;;;;3.60;2.47;;;19.10;91.60;;;;;;5030058;28;20045;-76
2021/06/13 10:24:56;;;;;;;7.18;5.50;;;19.30;92.10;;;;;;5030397;28;20046;-77
2021/06/13 10:27:24;;;;;;;2.95;2.60;;;19.40;90.50;;;;;;5031093;28;20080;-77
2021/06/13 10:29:52;;;;;;;4.68;3.20;;;19.20;94.00;;;;;;5029729;28;20045;-77
2021/06/13 10:32:23;;;;;;;3.15;2.35;;;19.40;95.10;;;;;;5029327;28;20045;-77
2021/06/13 10:34:53;;;;;;;3.20;2.42;;;19.40;92.30;;;;;;5030020;28;20053;-77
2021/06/13 10:37:21;;;;;;;3.92;3.60;;;19.20;91.60;;;;;;5030279;28;20042;-77
2021/06/13 10:39:52;;;;;;;2.85;2.65;;;19.20;92.80;;;;;;5008558;28;20058;-86
2021/06/13 10:42:26;;;;;;;3.28;2.10;;;19.30;92.60;;;;;;5010948;28;20138;-85
2021/06/13 10:44:58;;;;;;;5.82;3.00;;;19.40;93.50;;;;;;5009913;28;20053;-77
2021/06/13 10:47:28;;;;;;;2.80;2.30;;;19.20;91.80;;;;;;5011012;28;20623;-78
2021/06/13 10:49:56;;;;;;;4.55;3.28;;;19.20;91.70;;;;;;5009598;28;20045;-78
2021/06/13 10:52:27;;;;;;;3.45;3.13;;;19.30;92.10;;;;;;5009242;28;20514;-77
2021/06/13 10:55:00;;;;;;;2.40;2.20;;;19.20;90.60;;;;;;5016408;28;20068;-78
2021/06/13 10:57:33;;;;;;;3.13;2.10;;;19.20;92.10;;;;;;5028931;28;20399;-79
2021/06/13 11:00:27;;;;;;;5.80;2.47;;;19.30;92.10;;;;;;5029594;28;20045;-78
2021/06/13 11:02:58;;;;;;;2.80;2.20;;;19.40;91.80;;;;;;4995482;28;20049;-78
2021/06/13 11:05:39;;;;;;;4.32;2.80;;;19.50;90.20;;;;;;5028794;28;20041;-77
2021/06/13 11:08:08;;;;;;;2.08;1.98;;;19.50;91.80;;;;;;5033173;28;20062;-78
2021/06/13 11:10:35;;;;;;;2.42;2.22;;;19.70;94.00;;;;;;5033740;28;20052;-79
2021/06/13 11:13:15;;;;;;;3.67;2.70;;;19.80;91.40;;;;;;5033525;28;20450;-78
2021/06/13 11:15:47;;;;;;;2.15;2.05;;;19.90;86.80;;;;;;5032895;28;20050;-78
2021/06/13 11:18:15;;;;;;;3.03;2.72;;;19.80;90.00;;;;;;5019059;28;20050;-79
2021/06/13 11:21:16;;;;;;;5.57;2.42;;;19.90;86.80;;;;;;5013461;28;20402;-77
2021/06/13 11:23:46;;;;;;;4.40;2.25;;;19.80;87.60;;;;;;5018833;28;20053;-77
2021/06/13 11:26:28;;;;;;;3.58;1.80;;;19.90;91.10;;;;;;4999614;28;20041;-77
2021/06/13 11:28:56;;;;;;;2.15;1.95;;;20.00;89.50;;;;;;5033412;28;20038;-79
2021/06/13 11:31:24;;;;;;;3.97;1.90;;;20.00;84.40;;;;;;5033109;28;20419;-79
2021/06/13 11:33:55;;;;;;;3.53;2.05;;;20.00;89.20;;;;;;5033063;28;20050;-78
2021/06/13 11:36:34;;;;;;;7.63;3.28;;;19.90;90.20;;;;;;5032032;28;20054;-77
2021/06/13 11:39:04;;;;;;;2.45;2.00;;;20.00;90.20;;;;;;5033667;28;20570;-81
2021/06/13 11:41:35;;;;;;;3.10;2.50;;;20.10;85.20;;;;;;5033039;28;20410;-77
2021/06/13 11:44:05;;;;;;;;;;;20.10;86.70;;;;;;5033582;28;20052;-79
2021/06/13 11:46:38;;;;;;;2.17;1.98;;;20.10;84.80;;;;;;5032820;28;20354;-79
2021/06/13 11:49:15;;;;;;;4.50;2.55;;;20.10;86.40;;;;;;5033232;28;20052;-78
2021/06/13 11:52:02;;;;;;;3.83;1.90;;;20.00;89.40;;;;;;5032847;28;20049;-79
2021/06/13 11:54:30;;;;;;;2.67;2.00;;;20.00;85.90;;;;;;5015170;28;20053;-79
2021/06/13 11:57:03;;;;;;;2.42;2.22;;;20.20;90.40;;;;;;5033013;28;20056;-83
2021/06/13 11:59:33;;;;;;;2.00;1.88;;;20.30;84.10;;;;;;5033266;28;20684;-78
2021/06/13 12:02:09;;;;;;;3.00;2.20;;;20.40;88.00;;;;;;5032579;28;20072;-80
2021/06/13 12:04:38;;;;;;;2.25;2.05;;;20.50;80.90;;;;;;5032015;28;20049;-79
2021/06/13 12:07:11;;;;;;;3.47;1.88;;;20.40;80.70;;;;;;5015151;28;20053;-79
2021/06/13 12:09:39;;;;;;;5.15;2.28;;;20.30;87.90;;;;;;5032182;28;20079;-79
2021/06/13 12:12:09;;;;;;;2.35;2.13;;;20.40;86.90;;;;;;5030524;28;20403;-81
2021/06/13 12:14:39;;;;;;;6.13;2.43;;;20.40;81.90;;;;;;5030839;28;20045;-80
2021/06/13 12:17:25;;;;;;;4.18;2.83;;;20.30;82.00;;;;;;5031488;28;20038;-80
2021/06/13 12:19:55;;;;;;;1.85;1.75;;;20.30;85.30;;;;;;5029413;28;20061;-77
2021/06/13 12:28:13;;;;;;;3.20;2.20;;;20.80;84.40;;;;;;5013897;28;20076;-80
2021/06/13 12:30:43;;;;;;;1.85;1.63;;;20.80;81.40;;;;;;5012324;28;20050;-80
2021/06/13 12:33:13;;;;;;;2.22;1.70;;;20.80;76.50;;;;;;5030668;28;20045;-79
2021/06/13 12:35:48;;;;;;;3.40;1.52;;;20.70;86.00;;;;;;5029295;28;20061;-79
2021/06/13 12:38:26;;;;;;;2.22;2.00;;;20.60;81.60;;;;;;5029562;28;20522;-77
2021/06/13 12:40:56;;;;;;;2.00;1.38;;;20.60;78.30;;;;;;5010189;28;20431;-80
2021/06/13 12:43:35;;;;;;;1.58;1.17;;;20.50;74.60;;;;;;5011302;28;20060;-81
2021/06/13 12:46:08;;;;;;;2.05;1.13;;;20.50;73.90;;;;;;5010176;28;20046;-79
2021/06/13 12:48:36;;;;;;;3.13;1.08;;;20.50;76.30;;;;;;5010834;28;20538;-79
2021/06/13 12:51:04;;;;;;;1.83;1.65;;;20.50;70.40;;;;;;5008785;28;20046;-86
2021/06/13 12:53:35;;;;;;;1.52;1.42;;;20.50;79.60;;;;;;5012202;28;20057;-78
2021/06/13 12:56:03;;;;;;;;;;;20.60;78.60;;;;;;5030199;28;20491;-79
2021/06/13 12:58:35;;;;;;;1.48;0.88;;;20.80;71.20;;;;;;5030686;28;19920;-79
2021/06/13 13:01:04;;;;;;;1.35;1.00;;;20.70;68.90;;;;;;5029345;28;20045;-78
2021/06/13 13:03:43;;;;;;;1.73;1.63;;;20.50;76.80;;;;;;5029300;28;20053;-78
2021/06/13 13:06:12;;;;;;;1.88;1.52;;;20.70;77.10;;;;;;5028107;28;20491;-80
2021/06/13 13:08:44;;;;;;;2.28;1.55;;;20.80;83.50;;;;;;5030058;28;20064;-79
2021/06/13 13:11:25;;;;;;;1.67;1.30;;;20.80;76.40;;;;;;5030084;28;20057;-78
2021/06/13 13:13:59;;;;;;;1.80;1.60;;;20.80;74.70;;;;;;5030040;28;20049;-78
2021/06/13 13:16:35;;;;;;;1.95;1.40;;;20.80;76.90;;;;;;5029843;28;20402;-78